Buies Creek, North Carolina
Current Conditions -  °F | °C
As of 11:15 AM on Thursday 27 Nov 2014 (Local Time) from KHRJ Reporting Station
Overcast Overcast  
Wind Chill: 44°   Ceiling: 1600
Heat Index: 47°   Visibility: 10mi
Dew Point: 40°   Wind: 6mph
Humidity: 77%   Direction: 290°WNW
Pressure: 30.04"   Gusts: NA
Location:  35.41°N, 78.74°W
Report Text: KHRJ 271615Z AUTO 29005KT 10SM BKN016 OVC055 08/04 A3004 RMK AO2 T00820044
Loading
Personal Weather Stations






























Interactive Weather Map New forecast layout! Learn more

10-Day Weather Forecast

Advertisements
Track Severe Weather on mobile